createdAt,value
2023-03-22T00:01:46.131Z,85.63
2023-03-22T00:04:12.612Z,85.59
2023-03-22T00:06:39.108Z,85.70
2023-03-22T00:09:05.627Z,85.76
2023-03-22T00:11:31.946Z,85.81
2023-03-22T00:13:58.912Z,85.93
2023-03-22T00:16:25.358Z,85.99
2023-03-22T00:18:52.038Z,86.12
2023-03-22T00:21:18.619Z,86.21
2023-03-22T00:23:45.462Z,86.22
2023-03-22T00:26:12.835Z,86.18
2023-03-22T00:28:39.356Z,86.10
2023-03-22T00:31:06.745Z,86.29
2023-03-22T00:33:33.464Z,86.13
2023-03-22T00:36:02.582Z,86.35
2023-03-22T00:38:42.342Z,86.35
2023-03-22T00:41:12.987Z,86.39
2023-03-22T00:43:40.579Z,86.38
2023-03-22T00:46:07.271Z,86.39
2023-03-22T00:48:33.638Z,86.56
2023-03-22T00:51:00.115Z,86.54
2023-03-22T00:53:28.962Z,86.33
2023-03-22T00:55:56.762Z,86.31
2023-03-22T00:58:23.185Z,86.24
2023-03-22T01:00:50.022Z,86.27
2023-03-22T01:03:17.032Z,86.35
2023-03-22T01:05:46.260Z,86.35
2023-03-22T01:08:12.852Z,86.23
2023-03-22T01:10:40.924Z,86.55
2023-03-22T01:13:08.510Z,86.63
2023-03-22T01:15:35.169Z,86.49
2023-03-22T01:18:01.677Z,86.60
2023-03-22T01:20:28.443Z,86.47
2023-03-22T01:22:54.978Z,86.38
2023-03-22T01:25:21.657Z,86.51
2023-03-22T01:27:48.034Z,86.41
2023-03-22T01:30:14.534Z,86.43
2023-03-22T01:32:40.934Z,86.48
2023-03-22T01:35:07.771Z,86.58
2023-03-22T01:37:34.233Z,86.54
2023-03-22T01:40:00.672Z,86.48
2023-03-22T01:42:27.930Z,86.54
2023-03-22T01:45:12.978Z,86.42
2023-03-22T01:47:42.705Z,86.35
2023-03-22T01:50:09.833Z,86.62
2023-03-22T01:52:37.550Z,86.42
2023-03-22T01:55:06.272Z,86.46
2023-03-22T01:57:37.380Z,86.49
2023-03-22T02:00:13.169Z,86.65
2023-03-22T02:02:39.660Z,86.60
2023-03-22T02:05:06.410Z,86.74
2023-03-22T02:07:32.755Z,86.59
2023-03-22T02:09:59.712Z,86.64
2023-03-22T02:12:38.695Z,86.73
2023-03-22T02:15:21.529Z,86.86
2023-03-22T02:17:51.302Z,86.83
2023-03-22T02:20:47.036Z,86.89
2023-03-22T02:23:33.381Z,86.91
2023-03-22T02:26:25.218Z,86.89
2023-03-22T02:29:04.361Z,87.00
2023-03-22T02:31:42.573Z,87.09
2023-03-22T02:34:32.694Z,87.48
2023-03-22T02:37:21.338Z,87.50
2023-03-22T02:40:14.251Z,87.86
2023-03-22T02:43:05.871Z,88.02
2023-03-22T02:45:41.125Z,88.15
2023-03-22T02:48:30.174Z,88.32
2023-03-22T02:51:13.982Z,88.56
2023-03-22T02:53:50.898Z,88.65
2023-03-22T02:56:28.806Z,88.77
2023-03-22T02:58:59.559Z,88.87
2023-03-22T03:01:30.443Z,89.11
2023-03-22T03:04:02.308Z,89.29
2023-03-22T03:06:35.697Z,89.72
2023-03-22T03:09:04.962Z,89.62
2023-03-22T03:11:32.442Z,89.65
2023-03-22T03:13:58.966Z,89.64
2023-03-22T03:16:29.362Z,90.02
2023-03-22T03:19:20.628Z,89.80
2023-03-22T03:22:06.690Z,89.82
2023-03-22T03:25:21.431Z,90.04
2023-03-22T03:27:57.455Z,89.95
2023-03-22T03:30:41.217Z,90.05
2023-03-22T03:33:13.517Z,90.32
2023-03-22T03:35:48.451Z,90.39
2023-03-22T03:38:23.666Z,90.52
2023-03-22T03:41:02.968Z,90.58
2023-03-22T03:43:29.439Z,90.49
2023-03-22T03:45:56.303Z,90.63
2023-03-22T03:48:27.497Z,90.71
2023-03-22T03:50:56.154Z,90.70
2023-03-22T03:53:22.515Z,90.58
2023-03-22T03:55:48.925Z,90.60
2023-03-22T03:58:18.111Z,90.50
2023-03-22T04:00:46.294Z,90.63
2023-03-22T04:03:13.928Z,90.71
2023-03-22T04:05:40.642Z,90.40
2023-03-22T04:08:07.250Z,90.50
2023-03-22T04:10:33.790Z,90.39
2023-03-22T04:13:00.292Z,90.36
2023-03-22T04:15:26.663Z,90.39
2023-03-22T04:17:53.836Z,90.48
2023-03-22T04:20:20.988Z,90.37
2023-03-22T04:22:49.225Z,90.32
2023-03-22T04:25:17.898Z,90.56
2023-03-22T04:27:45.818Z,90.42
2023-03-22T04:30:19.930Z,90.35
2023-03-22T04:32:47.602Z,90.21
2023-03-22T04:35:14.586Z,90.19
2023-03-22T04:37:42.945Z,90.14
2023-03-22T04:40:16.288Z,89.84
2023-03-22T04:42:44.095Z,89.91
2023-03-22T04:45:11.934Z,89.87
2023-03-22T04:47:38.526Z,89.71
2023-03-22T04:50:06.524Z,89.74
2023-03-22T04:52:33.018Z,89.53
2023-03-22T04:54:59.366Z,89.36
2023-03-22T04:57:25.781Z,89.67
2023-03-22T04:59:52.091Z,89.62
2023-03-22T05:02:18.437Z,89.38
2023-03-22T05:04:44.806Z,89.27
2023-03-22T05:07:11.112Z,89.46
2023-03-22T05:09:37.466Z,89.45
2023-03-22T05:12:03.813Z,89.31
2023-03-22T05:14:30.219Z,89.24
2023-03-22T05:16:56.585Z,89.15
2023-03-22T05:19:24.342Z,89.39
2023-03-22T05:21:57.760Z,89.24
2023-03-22T05:24:24.244Z,89.07
2023-03-22T05:26:53.704Z,89.05
2023-03-22T05:29:21.307Z,89.17
2023-03-22T05:31:47.741Z,88.92
2023-03-22T05:34:14.065Z,89.01
2023-03-22T05:36:40.421Z,89.07
2023-03-22T05:39:07.164Z,88.91
2023-03-22T05:41:36.237Z,89.02
2023-03-22T05:44:03.543Z,88.87
2023-03-22T05:46:29.999Z,88.75
2023-03-22T05:48:56.404Z,88.95
2023-03-22T05:51:25.696Z,89.07
2023-03-22T05:53:53.479Z,89.07
2023-03-22T05:56:23.980Z,89.12
2023-03-22T05:58:51.047Z,88.95
2023-03-22T06:01:17.414Z,88.79
2023-03-22T06:03:43.773Z,88.86
2023-03-22T06:06:13.709Z,88.67
2023-03-22T06:08:40.342Z,88.77
2023-03-22T06:11:07.484Z,88.71
2023-03-22T06:13:33.852Z,88.66
2023-03-22T06:16:02.139Z,88.54
2023-03-22T06:18:29.624Z,88.57
2023-03-22T06:20:56.105Z,88.52
2023-03-22T06:23:22.547Z,88.15
2023-03-22T06:25:48.888Z,88.20
2023-03-22T06:28:15.307Z,88.14
2023-03-22T06:30:42.006Z,87.92
2023-03-22T06:33:08.588Z,87.57
2023-03-22T06:35:35.280Z,87.55
2023-03-22T06:38:01.743Z,87.07
2023-03-22T06:40:28.567Z,84.42
2023-03-22T06:42:54.966Z,82.54
2023-03-22T06:45:21.945Z,81.18
2023-03-22T06:47:48.332Z,82.01
2023-03-22T06:50:15.754Z,81.71
2023-03-22T06:52:42.068Z,81.76
2023-03-22T06:55:08.933Z,82.46
2023-03-22T06:57:35.413Z,83.44
2023-03-22T07:00:01.920Z,83.47
2023-03-22T07:02:28.253Z,83.40
2023-03-22T07:04:54.756Z,83.58
2023-03-22T07:07:21.100Z,83.95
2023-03-22T07:09:47.490Z,84.11
2023-03-22T07:12:13.883Z,84.00
2023-03-22T07:14:40.365Z,83.97
2023-03-22T07:17:06.687Z,84.01
2023-03-22T07:19:33.312Z,84.06
2023-03-22T07:21:59.697Z,84.20
2023-03-22T07:24:26.021Z,83.87
2023-03-22T07:26:52.428Z,84.18
2023-03-22T07:29:18.737Z,84.21
2023-03-22T07:31:45.786Z,83.85
2023-03-22T07:34:12.431Z,84.10
2023-03-22T07:36:38.732Z,83.51
2023-03-22T07:39:05.934Z,83.71
2023-03-22T07:41:32.732Z,83.35
2023-03-22T07:44:11.384Z,83.20
2023-03-22T07:46:43.388Z,83.39
2023-03-22T07:49:09.736Z,82.29
2023-03-22T07:51:36.147Z,82.08
2023-03-22T07:54:05.738Z,82.04
2023-03-22T07:56:33.839Z,82.13
2023-03-22T07:59:00.175Z,82.36
2023-03-22T08:01:26.693Z,82.18
2023-03-22T08:03:53.032Z,81.79
2023-03-22T08:06:21.366Z,82.19
2023-03-22T08:08:47.745Z,80.90
2023-03-22T08:11:14.400Z,80.31
2023-03-22T08:13:40.878Z,79.74
2023-03-22T08:16:07.533Z,78.56
2023-03-22T08:18:33.856Z,79.56
2023-03-22T08:21:00.846Z,79.15
2023-03-22T08:23:40.433Z,79.52
2023-03-22T08:26:08.544Z,79.26
2023-03-22T08:28:35.441Z,79.04
2023-03-22T08:31:01.854Z,79.06
2023-03-22T08:33:28.625Z,79.79
2023-03-22T08:36:05.426Z,79.37
2023-03-22T08:38:31.925Z,79.35
2023-03-22T08:40:58.352Z,79.85
2023-03-22T08:43:24.816Z,79.52
2023-03-22T08:45:51.215Z,78.91
2023-03-22T08:48:17.605Z,78.61
2023-03-22T08:50:44.249Z,78.97
2023-03-22T08:53:11.082Z,78.42
2023-03-22T08:55:37.631Z,77.86
2023-03-22T08:58:04.677Z,77.99
2023-03-22T09:00:42.490Z,77.35
2023-03-22T09:03:13.935Z,78.05
2023-03-22T09:05:40.810Z,77.72
2023-03-22T09:08:07.754Z,77.08
2023-03-22T09:10:34.694Z,78.38
2023-03-22T09:13:01.120Z,77.72
2023-03-22T09:15:27.450Z,77.77
2023-03-22T09:17:53.869Z,78.48
2023-03-22T09:20:25.139Z,77.91
2023-03-22T09:22:52.542Z,78.46
2023-03-22T09:25:18.980Z,77.72
2023-03-22T09:27:45.788Z,78.08
2023-03-22T09:30:12.457Z,78.57
2023-03-22T09:32:41.937Z,78.65
2023-03-22T09:35:08.771Z,78.74
2023-03-22T09:37:35.098Z,78.79
2023-03-22T09:40:01.439Z,79.49
2023-03-22T09:42:44.377Z,79.82
2023-03-22T09:45:16.575Z,80.27
2023-03-22T09:47:46.851Z,80.97
2023-03-22T09:50:19.930Z,81.70
2023-03-22T09:52:46.708Z,81.61
2023-03-22T09:55:37.614Z,82.29
2023-03-22T09:58:19.600Z,82.49
2023-03-22T10:00:51.401Z,83.21
2023-03-22T10:03:46.170Z,83.47
2023-03-22T10:06:21.719Z,83.84
2023-03-22T10:09:00.362Z,84.17
2023-03-22T10:11:49.071Z,84.30
2023-03-22T10:14:32.751Z,84.63
2023-03-22T10:17:03.664Z,84.89
2023-03-22T10:19:48.798Z,84.58
2023-03-22T10:22:18.906Z,84.97
2023-03-22T10:24:48.765Z,84.85
2023-03-22T10:27:18.093Z,85.10
2023-03-22T10:30:21.476Z,85.39
2023-03-22T10:33:00.541Z,84.94
2023-03-22T10:35:27.719Z,85.69
2023-03-22T10:37:57.385Z,85.33
2023-03-22T10:40:32.687Z,85.24
2023-03-22T10:43:20.047Z,85.37
2023-03-22T10:45:46.819Z,85.54
2023-03-22T10:48:13.120Z,85.49
2023-03-22T10:50:44.536Z,85.77
2023-03-22T10:53:28.161Z,86.31
2023-03-22T10:55:54.601Z,86.41
2023-03-22T10:58:27.638Z,86.31
2023-03-22T11:00:57.500Z,86.18
2023-03-22T11:03:27.360Z,86.42
2023-03-22T11:06:14.180Z,86.40
2023-03-22T11:08:47.729Z,86.65
2023-03-22T11:11:26.335Z,86.09
2023-03-22T11:14:14.567Z,86.25
2023-03-22T11:17:01.099Z,86.12
2023-03-22T11:19:32.225Z,86.18
2023-03-22T11:21:59.711Z,86.23
2023-03-22T11:24:32.162Z,85.49
2023-03-22T11:27:08.074Z,85.89
2023-03-22T11:29:44.543Z,85.25
2023-03-22T11:32:21.968Z,85.42
2023-03-22T11:34:58.567Z,86.16
2023-03-22T11:37:24.934Z,86.14
2023-03-22T11:39:52.014Z,85.47
2023-03-22T11:42:21.205Z,85.26
2023-03-22T11:44:47.582Z,85.26
2023-03-22T11:47:14.186Z,85.53
2023-03-22T11:49:47.366Z,86.51
2023-03-22T11:52:19.939Z,86.04
2023-03-22T11:54:47.217Z,85.00
2023-03-22T11:57:17.133Z,85.10
2023-03-22T12:00:12.013Z,85.35
2023-03-22T12:02:46.320Z,84.88
2023-03-22T12:05:20.936Z,84.59
2023-03-22T12:07:53.557Z,84.95
2023-03-22T12:10:27.971Z,85.27
2023-03-22T12:13:00.369Z,85.21
2023-03-22T12:15:31.556Z,85.06
2023-03-22T12:18:08.127Z,84.78
2023-03-22T12:20:43.289Z,84.98
2023-03-22T12:23:16.191Z,85.09
2023-03-22T12:26:05.966Z,85.27
2023-03-22T12:29:04.978Z,84.89
2023-03-22T12:31:37.363Z,84.77
2023-03-22T12:34:08.595Z,84.88
2023-03-22T12:36:43.078Z,84.53
2023-03-22T12:39:19.811Z,84.71
2023-03-22T12:41:50.320Z,84.53
2023-03-22T12:44:40.203Z,84.42
2023-03-22T12:47:22.310Z,84.47
2023-03-22T12:50:11.746Z,84.65
2023-03-22T12:52:58.336Z,84.55
2023-03-22T12:55:30.051Z,84.68
2023-03-22T12:57:56.831Z,84.71
2023-03-22T13:00:32.555Z,84.53
2023-03-22T13:03:10.397Z,84.96
2023-03-22T13:05:37.408Z,84.65
2023-03-22T13:08:05.569Z,84.45
2023-03-22T13:10:32.714Z,84.60
2023-03-22T13:13:23.921Z,84.92
2023-03-22T13:16:08.475Z,84.73
2023-03-22T13:18:38.081Z,84.62
2023-03-22T13:21:22.066Z,84.47
2023-03-22T13:23:54.122Z,84.14
2023-03-22T13:26:25.966Z,84.28
2023-03-22T13:29:02.008Z,84.26
2023-03-22T13:31:51.486Z,84.63
2023-03-22T13:34:44.055Z,84.36
2023-03-22T13:37:22.676Z,84.17
2023-03-22T13:39:52.275Z,84.81
2023-03-22T13:42:22.329Z,84.77
2023-03-22T13:44:56.961Z,84.85
2023-03-22T13:47:34.407Z,84.68
2023-03-22T13:50:09.798Z,84.77
2023-03-22T13:52:51.344Z,85.43
2023-03-22T13:55:41.654Z,85.46
2023-03-22T13:58:29.954Z,85.65
2023-03-22T14:00:57.508Z,85.49
2023-03-22T14:03:30.473Z,86.02
2023-03-22T14:06:14.341Z,86.25
2023-03-22T14:08:43.600Z,86.43
2023-03-22T14:11:20.672Z,86.55
2023-03-22T14:13:51.333Z,86.57
2023-03-22T14:16:36.780Z,86.78
2023-03-22T14:19:06.217Z,86.66
2023-03-22T14:21:42.706Z,86.94
